sensor_id;sensor_type;location;lat;lon;timestamp;P1;durP1;ratioP1;P2;durP2;ratioP2
18443;SDS011;9350;53.176;8.194;2022-10-30T00:02:25;18.90;;;9.45;;
18443;SDS011;9350;53.176;8.194;2022-10-30T00:04:51;23.63;;;10.27;;
18443;SDS011;9350;53.176;8.194;2022-10-30T00:07:18;21.13;;;9.88;;
18443;SDS011;9350;53.176;8.194;2022-10-30T00:09:46;18.52;;;9.20;;
18443;SDS011;9350;53.176;8.194;2022-10-30T00:12:13;20.70;;;10.02;;
18443;SDS011;9350;53.176;8.194;2022-10-30T00:14:39;17.85;;;9.50;;
18443;SDS011;9350;53.176;8.194;2022-10-30T00:17:06;21.02;;;9.82;;
18443;SDS011;9350;53.176;8.194;2022-10-30T00:19:33;19.42;;;9.23;;
18443;SDS011;9350;53.176;8.194;2022-10-30T00:22:00;22.00;;;10.18;;
18443;SDS011;9350;53.176;8.194;2022-10-30T00:24:26;17.38;;;9.23;;
18443;SDS011;9350;53.176;8.194;2022-10-30T00:26:54;17.08;;;9.50;;
18443;SDS011;9350;53.176;8.194;2022-10-30T00:29:21;16.50;;;9.70;;
18443;SDS011;9350;53.176;8.194;2022-10-30T00:31:50;18.83;;;10.05;;
18443;SDS011;9350;53.176;8.194;2022-10-30T00:34:17;18.23;;;9.40;;
18443;SDS011;9350;53.176;8.194;2022-10-30T00:36:43;16.77;;;10.10;;
18443;SDS011;9350;53.176;8.194;2022-10-30T00:39:10;18.73;;;8.88;;
18443;SDS011;9350;53.176;8.194;2022-10-30T00:41:37;17.77;;;9.55;;
18443;SDS011;9350;53.176;8.194;2022-10-30T00:47:03;18.27;;;9.35;;
18443;SDS011;9350;53.176;8.194;2022-10-30T00:49:36;20.58;;;9.23;;
18443;SDS011;9350;53.176;8.194;2022-10-30T00:52:07;23.08;;;8.88;;
18443;SDS011;9350;53.176;8.194;2022-10-30T00:54:35;21.10;;;8.63;;
18443;SDS011;9350;53.176;8.194;2022-10-30T00:57:02;18.42;;;8.75;;
18443;SDS011;9350;53.176;8.194;2022-10-30T00:59:32;25.83;;;9.00;;
18443;SDS011;9350;53.176;8.194;2022-10-30T01:02:03;16.05;;;8.63;;
18443;SDS011;9350;53.176;8.194;2022-10-30T01:04:30;20.70;;;9.50;;
18443;SDS011;9350;53.176;8.194;2022-10-30T01:07:01;21.17;;;9.48;;
18443;SDS011;9350;53.176;8.194;2022-10-30T01:09:34;19.05;;;8.85;;
18443;SDS011;9350;53.176;8.194;2022-10-30T01:12:01;23.30;;;9.50;;
18443;SDS011;9350;53.176;8.194;2022-10-30T01:14:28;19.13;;;9.10;;
18443;SDS011;9350;53.176;8.194;2022-10-30T01:16:57;15.40;;;8.85;;
18443;SDS011;9350;53.176;8.194;2022-10-30T01:19:38;18.65;;;9.50;;
18443;SDS011;9350;53.176;8.194;2022-10-30T01:22:16;15.43;;;8.32;;
18443;SDS011;9350;53.176;8.194;2022-10-30T01:24:57;16.65;;;8.88;;
18443;SDS011;9350;53.176;8.194;2022-10-30T01:27:34;19.23;;;8.88;;
18443;SDS011;9350;53.176;8.194;2022-10-30T01:30:10;21.50;;;8.90;;
18443;SDS011;9350;53.176;8.194;2022-10-30T01:32:51;22.13;;;9.50;;
18443;SDS011;9350;53.176;8.194;2022-10-30T01:35:26;16.45;;;8.95;;
18443;SDS011;9350;53.176;8.194;2022-10-30T01:38:00;16.17;;;8.77;;
18443;SDS011;9350;53.176;8.194;2022-10-30T01:40:31;22.23;;;8.88;;
18443;SDS011;9350;53.176;8.194;2022-10-30T01:42:59;22.33;;;9.30;;
18443;SDS011;9350;53.176;8.194;2022-10-30T01:45:30;19.40;;;8.52;;
18443;SDS011;9350;53.176;8.194;2022-10-30T01:48:20;20.60;;;9.38;;
18443;SDS011;9350;53.176;8.194;2022-10-30T01:51:02;22.95;;;9.40;;
18443;SDS011;9350;53.176;8.194;2022-10-30T01:53:38;19.08;;;9.40;;
18443;SDS011;9350;53.176;8.194;2022-10-30T01:56:14;20.95;;;9.43;;
18443;SDS011;9350;53.176;8.194;2022-10-30T01:58:48;21.08;;;9.80;;
18443;SDS011;9350;53.176;8.194;2022-10-30T02:01:21;21.67;;;9.52;;
18443;SDS011;9350;53.176;8.194;2022-10-30T02:03:50;26.77;;;9.68;;
18443;SDS011;9350;53.176;8.194;2022-10-30T02:06:17;22.67;;;9.57;;
18443;SDS011;9350;53.176;8.194;2022-10-30T02:08:44;18.15;;;8.95;;
18443;SDS011;9350;53.176;8.194;2022-10-30T02:11:10;22.50;;;9.25;;
18443;SDS011;9350;53.176;8.194;2022-10-30T02:13:37;21.48;;;9.38;;
18443;SDS011;9350;53.176;8.194;2022-10-30T02:16:05;19.92;;;9.48;;
18443;SDS011;9350;53.176;8.194;2022-10-30T02:18:32;22.38;;;9.25;;
18443;SDS011;9350;53.176;8.194;2022-10-30T02:21:00;28.17;;;8.48;;
18443;SDS011;9350;53.176;8.194;2022-10-30T02:23:27;19.00;;;9.45;;
18443;SDS011;9350;53.176;8.194;2022-10-30T02:25:54;17.67;;;9.27;;
18443;SDS011;9350;53.176;8.194;2022-10-30T02:28:20;21.65;;;9.35;;
18443;SDS011;9350;53.176;8.194;2022-10-30T02:30:47;19.67;;;8.80;;
18443;SDS011;9350;53.176;8.194;2022-10-30T02:33:14;14.35;;;8.48;;
18443;SDS011;9350;53.176;8.194;2022-10-30T02:35:41;22.35;;;9.00;;
18443;SDS011;9350;53.176;8.194;2022-10-30T02:38:09;20.70;;;9.15;;
18443;SDS011;9350;53.176;8.194;2022-10-30T02:40:35;19.85;;;9.68;;
18443;SDS011;9350;53.176;8.194;2022-10-30T02:43:02;23.33;;;8.80;;
18443;SDS011;9350;53.176;8.194;2022-10-30T02:45:29;16.30;;;9.13;;
18443;SDS011;9350;53.176;8.194;2022-10-30T02:47:57;21.55;;;9.18;;
18443;SDS011;9350;53.176;8.194;2022-10-30T02:50:24;19.60;;;9.00;;
18443;SDS011;9350;53.176;8.194;2022-10-30T02:52:51;20.23;;;8.25;;
18443;SDS011;9350;53.176;8.194;2022-10-30T02:55:19;19.73;;;8.75;;
18443;SDS011;9350;53.176;8.194;2022-10-30T02:57:46;21.13;;;8.73;;
18443;SDS011;9350;53.176;8.194;2022-10-30T03:00:13;19.00;;;8.95;;
18443;SDS011;9350;53.176;8.194;2022-10-30T03:02:40;20.83;;;8.90;;
18443;SDS011;9350;53.176;8.194;2022-10-30T03:05:07;19.40;;;7.70;;
18443;SDS011;9350;53.176;8.194;2022-10-30T03:07:34;19.45;;;8.70;;
18443;SDS011;9350;53.176;8.194;2022-10-30T03:10:01;20.20;;;8.57;;
18443;SDS011;9350;53.176;8.194;2022-10-30T03:12:29;16.92;;;9.05;;
18443;SDS011;9350;53.176;8.194;2022-10-30T03:14:55;20.05;;;7.88;;
18443;SDS011;9350;53.176;8.194;2022-10-30T03:17:22;16.00;;;8.07;;
18443;SDS011;9350;53.176;8.194;2022-10-30T03:19:49;28.08;;;8.77;;
18443;SDS011;9350;53.176;8.194;2022-10-30T03:22:16;20.50;;;7.68;;
18443;SDS011;9350;53.176;8.194;2022-10-30T03:24:43;20.00;;;8.80;;
18443;SDS011;9350;53.176;8.194;2022-10-30T03:27:09;19.90;;;7.22;;
18443;SDS011;9350;53.176;8.194;2022-10-30T03:29:37;20.02;;;8.18;;
18443;SDS011;9350;53.176;8.194;2022-10-30T03:32:07;18.10;;;7.85;;
18443;SDS011;9350;53.176;8.194;2022-10-30T03:34:34;20.63;;;8.38;;
18443;SDS011;9350;53.176;8.194;2022-10-30T03:37:01;15.10;;;7.68;;
18443;SDS011;9350;53.176;8.194;2022-10-30T03:39:28;24.77;;;8.38;;
18443;SDS011;9350;53.176;8.194;2022-10-30T03:41:55;21.23;;;8.05;;
18443;SDS011;9350;53.176;8.194;2022-10-30T03:44:21;15.70;;;8.02;;
18443;SDS011;9350;53.176;8.194;2022-10-30T03:46:49;18.45;;;8.05;;
18443;SDS011;9350;53.176;8.194;2022-10-30T03:49:16;17.38;;;8.18;;
18443;SDS011;9350;53.176;8.194;2022-10-30T03:51:43;16.38;;;7.75;;
18443;SDS011;9350;53.176;8.194;2022-10-30T03:54:10;19.73;;;7.85;;
18443;SDS011;9350;53.176;8.194;2022-10-30T03:56:36;15.77;;;8.18;;
18443;SDS011;9350;53.176;8.194;2022-10-30T03:59:03;20.27;;;8.32;;
18443;SDS011;9350;53.176;8.194;2022-10-30T04:01:30;16.77;;;8.27;;
18443;SDS011;9350;53.176;8.194;2022-10-30T04:03:58;14.52;;;7.75;;
18443;SDS011;9350;53.176;8.194;2022-10-30T04:06:25;17.08;;;7.78;;
18443;SDS011;9350;53.176;8.194;2022-10-30T04:08:53;15.90;;;7.82;;
18443;SDS011;9350;53.176;8.194;2022-10-30T04:11:19;19.98;;;7.45;;
18443;SDS011;9350;53.176;8.194;2022-10-30T04:13:46;14.88;;;7.88;;
18443;SDS011;9350;53.176;8.194;2022-10-30T04:16:13;21.67;;;8.80;;
18443;SDS011;9350;53.176;8.194;2022-10-30T04:18:40;16.38;;;7.55;;
18443;SDS011;9350;53.176;8.194;2022-10-30T04:21:08;16.23;;;7.82;;
18443;SDS011;9350;53.176;8.194;2022-10-30T04:23:35;17.42;;;8.13;;
18443;SDS011;9350;53.176;8.194;2022-10-30T04:26:02;21.40;;;7.72;;
18443;SDS011;9350;53.176;8.194;2022-10-30T04:28:29;17.13;;;7.70;;
18443;SDS011;9350;53.176;8.194;2022-10-30T04:30:55;18.95;;;8.07;;
18443;SDS011;9350;53.176;8.194;2022-10-30T04:33:22;20.42;;;7.95;;
18443;SDS011;9350;53.176;8.194;2022-10-30T04:35:49;13.05;;;7.05;;
18443;SDS011;9350;53.176;8.194;2022-10-30T04:38:17;18.25;;;8.13;;
18443;SDS011;9350;53.176;8.194;2022-10-30T04:40:44;18.55;;;7.88;;
18443;SDS011;9350;53.176;8.194;2022-10-30T04:43:11;15.55;;;8.48;;
18443;SDS011;9350;53.176;8.194;2022-10-30T04:45:38;15.93;;;7.60;;
18443;SDS011;9350;53.176;8.194;2022-10-30T04:48:06;14.20;;;8.00;;
18443;SDS011;9350;53.176;8.194;2022-10-30T04:50:35;16.00;;;7.65;;
18443;SDS011;9350;53.176;8.194;2022-10-30T04:53:02;16.58;;;7.75;;
18443;SDS011;9350;53.176;8.194;2022-10-30T04:55:32;17.20;;;7.18;;
18443;SDS011;9350;53.176;8.194;2022-10-30T04:57:59;16.73;;;7.75;;
18443;SDS011;9350;53.176;8.194;2022-10-30T05:00:27;20.52;;;7.85;;
18443;SDS011;9350;53.176;8.194;2022-10-30T05:02:54;17.13;;;8.15;;
18443;SDS011;9350;53.176;8.194;2022-10-30T05:05:23;12.23;;;7.72;;
18443;SDS011;9350;53.176;8.194;2022-10-30T05:07:50;16.55;;;8.10;;
18443;SDS011;9350;53.176;8.194;2022-10-30T05:10:17;12.57;;;7.75;;
18443;SDS011;9350;53.176;8.194;2022-10-30T05:12:45;15.00;;;7.78;;
18443;SDS011;9350;53.176;8.194;2022-10-30T05:15:12;17.15;;;7.75;;
18443;SDS011;9350;53.176;8.194;2022-10-30T05:17:39;18.80;;;7.78;;
18443;SDS011;9350;53.176;8.194;2022-10-30T05:20:06;19.13;;;7.88;;
18443;SDS011;9350;53.176;8.194;2022-10-30T05:22:34;16.17;;;7.75;;
18443;SDS011;9350;53.176;8.194;2022-10-30T05:25:00;19.33;;;8.07;;
18443;SDS011;9350;53.176;8.194;2022-10-30T05:27:27;22.05;;;8.13;;
18443;SDS011;9350;53.176;8.194;2022-10-30T05:29:55;12.40;;;8.15;;
18443;SDS011;9350;53.176;8.194;2022-10-30T05:32:22;12.05;;;7.38;;
18443;SDS011;9350;53.176;8.194;2022-10-30T05:34:49;15.13;;;7.80;;
18443;SDS011;9350;53.176;8.194;2022-10-30T05:37:16;13.70;;;6.85;;
18443;SDS011;9350;53.176;8.194;2022-10-30T05:39:42;24.67;;;7.53;;
18443;SDS011;9350;53.176;8.194;2022-10-30T05:42:09;15.68;;;7.38;;
18443;SDS011;9350;53.176;8.194;2022-10-30T05:44:36;21.55;;;7.95;;
18443;SDS011;9350;53.176;8.194;2022-10-30T05:47:04;17.30;;;8.43;;
18443;SDS011;9350;53.176;8.194;2022-10-30T05:49:30;21.08;;;8.65;;
18443;SDS011;9350;53.176;8.194;2022-10-30T05:51:57;15.80;;;7.32;;
18443;SDS011;9350;53.176;8.194;2022-10-30T05:54:24;13.77;;;7.20;;
18443;SDS011;9350;53.176;8.194;2022-10-30T05:56:50;16.27;;;7.47;;
18443;SDS011;9350;53.176;8.194;2022-10-30T05:59:17;16.15;;;7.03;;
18443;SDS011;9350;53.176;8.194;2022-10-30T06:01:44;18.90;;;7.95;;
18443;SDS011;9350;53.176;8.194;2022-10-30T06:04:12;13.98;;;6.57;;
18443;SDS011;9350;53.176;8.194;2022-10-30T06:06:38;23.92;;;7.65;;
18443;SDS011;9350;53.176;8.194;2022-10-30T06:09:05;19.25;;;7.22;;
18443;SDS011;9350;53.176;8.194;2022-10-30T06:11:32;17.90;;;7.75;;
18443;SDS011;9350;53.176;8.194;2022-10-30T06:13:58;20.15;;;7.90;;
18443;SDS011;9350;53.176;8.194;2022-10-30T06:16:25;14.88;;;6.75;;
18443;SDS011;9350;53.176;8.194;2022-10-30T06:18:52;19.67;;;7.47;;
18443;SDS011;9350;53.176;8.194;2022-10-30T06:21:20;16.02;;;7.25;;
18443;SDS011;9350;53.176;8.194;2022-10-30T06:23:47;17.38;;;7.60;;
18443;SDS011;9350;53.176;8.194;2022-10-30T06:26:13;18.02;;;6.85;;
18443;SDS011;9350;53.176;8.194;2022-10-30T06:28:40;14.32;;;7.22;;
18443;SDS011;9350;53.176;8.194;2022-10-30T06:31:07;19.50;;;7.88;;
18443;SDS011;9350;53.176;8.194;2022-10-30T06:33:34;17.10;;;7.57;;
18443;SDS011;9350;53.176;8.194;2022-10-30T06:36:01;14.90;;;7.35;;
18443;SDS011;9350;53.176;8.194;2022-10-30T06:38:29;15.88;;;7.13;;
18443;SDS011;9350;53.176;8.194;2022-10-30T06:40:56;18.85;;;7.88;;
18443;SDS011;9350;53.176;8.194;2022-10-30T06:43:22;21.45;;;8.05;;
18443;SDS011;9350;53.176;8.194;2022-10-30T06:45:49;15.07;;;7.38;;
18443;SDS011;9350;53.176;8.194;2022-10-30T06:48:16;20.15;;;7.20;;
18443;SDS011;9350;53.176;8.194;2022-10-30T06:50:43;20.50;;;7.55;;
18443;SDS011;9350;53.176;8.194;2022-10-30T06:53:09;20.13;;;7.22;;
18443;SDS011;9350;53.176;8.194;2022-10-30T06:55:37;15.02;;;7.90;;
18443;SDS011;9350;53.176;8.194;2022-10-30T06:58:04;16.20;;;7.60;;
18443;SDS011;9350;53.176;8.194;2022-10-30T07:00:31;16.05;;;7.95;;
18443;SDS011;9350;53.176;8.194;2022-10-30T07:02:58;21.15;;;8.23;;
18443;SDS011;9350;53.176;8.194;2022-10-30T07:05:25;14.63;;;7.88;;
18443;SDS011;9350;53.176;8.194;2022-10-30T07:07:54;18.05;;;7.97;;
18443;SDS011;9350;53.176;8.194;2022-10-30T07:10:21;23.50;;;7.57;;
18443;SDS011;9350;53.176;8.194;2022-10-30T07:12:53;27.27;;;9.30;;
18443;SDS011;9350;53.176;8.194;2022-10-30T07:15:21;19.58;;;8.68;;
18443;SDS011;9350;53.176;8.194;2022-10-30T07:17:51;19.33;;;9.10;;
18443;SDS011;9350;53.176;8.194;2022-10-30T07:20:19;20.23;;;7.97;;
18443;SDS011;9350;53.176;8.194;2022-10-30T07:22:46;16.75;;;9.13;;
18443;SDS011;9350;53.176;8.194;2022-10-30T07:25:12;17.98;;;9.02;;
18443;SDS011;9350;53.176;8.194;2022-10-30T07:27:42;19.95;;;9.32;;
18443;SDS011;9350;53.176;8.194;2022-10-30T07:30:12;24.67;;;9.20;;
18443;SDS011;9350;53.176;8.194;2022-10-30T07:32:39;23.08;;;9.75;;
18443;SDS011;9350;53.176;8.194;2022-10-30T07:35:07;18.42;;;10.25;;
18443;SDS011;9350;53.176;8.194;2022-10-30T07:37:35;18.60;;;10.52;;
18443;SDS011;9350;53.176;8.194;2022-10-30T07:40:01;19.77;;;10.32;;
18443;SDS011;9350;53.176;8.194;2022-10-30T07:42:28;28.15;;;10.05;;
18443;SDS011;9350;53.176;8.194;2022-10-30T07:44:55;21.85;;;10.02;;
18443;SDS011;9350;53.176;8.194;2022-10-30T07:47:23;26.52;;;9.88;;
18443;SDS011;9350;53.176;8.194;2022-10-30T07:49:50;23.75;;;10.10;;
18443;SDS011;9350;53.176;8.194;2022-10-30T07:52:17;25.40;;;10.32;;
18443;SDS011;9350;53.176;8.194;2022-10-30T07:54:44;21.13;;;10.75;;
18443;SDS011;9350;53.176;8.194;2022-10-30T07:57:10;23.40;;;11.15;;
18443;SDS011;9350;53.176;8.194;2022-10-30T07:59:37;18.50;;;10.07;;
18443;SDS011;9350;53.176;8.194;2022-10-30T08:02:04;29.13;;;10.38;;
18443;SDS011;9350;53.176;8.194;2022-10-30T08:04:32;27.88;;;9.73;;
18443;SDS011;9350;53.176;8.194;2022-10-30T08:06:59;21.98;;;10.00;;
18443;SDS011;9350;53.176;8.194;2022-10-30T08:09:25;22.13;;;9.88;;
18443;SDS011;9350;53.176;8.194;2022-10-30T08:11:52;24.90;;;11.40;;
18443;SDS011;9350;53.176;8.194;2022-10-30T08:14:19;22.85;;;10.82;;
18443;SDS011;9350;53.176;8.194;2022-10-30T08:16:46;20.50;;;10.75;;
18443;SDS011;9350;53.176;8.194;2022-10-30T08:19:12;25.70;;;10.75;;
18443;SDS011;9350;53.176;8.194;2022-10-30T08:21:40;25.58;;;11.05;;
18443;SDS011;9350;53.176;8.194;2022-10-30T08:24:07;22.33;;;10.40;;
18443;SDS011;9350;53.176;8.194;2022-10-30T08:26:34;22.25;;;11.25;;
18443;SDS011;9350;53.176;8.194;2022-10-30T08:29:01;25.67;;;10.45;;
18443;SDS011;9350;53.176;8.194;2022-10-30T08:31:28;21.17;;;10.85;;
18443;SDS011;9350;53.176;8.194;2022-10-30T08:33:55;18.33;;;9.73;;
18443;SDS011;9350;53.176;8.194;2022-10-30T08:36:22;26.00;;;11.27;;
18443;SDS011;9350;53.176;8.194;2022-10-30T08:38:50;25.40;;;10.50;;
18443;SDS011;9350;53.176;8.194;2022-10-30T08:41:17;22.50;;;11.57;;
18443;SDS011;9350;53.176;8.194;2022-10-30T08:43:43;23.77;;;10.73;;
18443;SDS011;9350;53.176;8.194;2022-10-30T08:46:10;27.52;;;10.48;;
18443;SDS011;9350;53.176;8.194;2022-10-30T08:48:37;23.55;;;11.52;;
18443;SDS011;9350;53.176;8.194;2022-10-30T08:51:03;27.98;;;11.38;;
18443;SDS011;9350;53.176;8.194;2022-10-30T08:53:31;21.00;;;11.25;;
18443;SDS011;9350;53.176;8.194;2022-10-30T08:55:59;28.70;;;10.65;;
18443;SDS011;9350;53.176;8.194;2022-10-30T08:58:26;24.48;;;11.02;;
18443;SDS011;9350;53.176;8.194;2022-10-30T09:00:52;23.77;;;11.95;;
18443;SDS011;9350;53.176;8.194;2022-10-30T09:03:19;27.95;;;12.38;;
18443;SDS011;9350;53.176;8.194;2022-10-30T09:05:46;24.13;;;11.50;;
18443;SDS011;9350;53.176;8.194;2022-10-30T09:08:12;23.88;;;12.18;;
18443;SDS011;9350;53.176;8.194;2022-10-30T09:10:39;29.20;;;12.18;;
18443;SDS011;9350;53.176;8.194;2022-10-30T09:13:08;27.58;;;12.15;;
18443;SDS011;9350;53.176;8.194;2022-10-30T09:15:35;23.88;;;11.70;;
18443;SDS011;9350;53.176;8.194;2022-10-30T09:18:02;23.67;;;12.00;;
18443;SDS011;9350;53.176;8.194;2022-10-30T09:20:30;25.35;;;12.18;;
18443;SDS011;9350;53.176;8.194;2022-10-30T09:22:57;22.75;;;11.45;;
18443;SDS011;9350;53.176;8.194;2022-10-30T09:25:23;33.55;;;11.85;;
18443;SDS011;9350;53.176;8.194;2022-10-30T09:27:50;27.95;;;12.27;;
18443;SDS011;9350;53.176;8.194;2022-10-30T09:30:18;26.63;;;12.15;;
18443;SDS011;9350;53.176;8.194;2022-10-30T09:32:45;26.85;;;12.20;;
18443;SDS011;9350;53.176;8.194;2022-10-30T09:35:18;26.52;;;11.93;;
18443;SDS011;9350;53.176;8.194;2022-10-30T09:37:45;28.75;;;13.05;;
18443;SDS011;9350;53.176;8.194;2022-10-30T09:40:12;22.80;;;12.65;;
18443;SDS011;9350;53.176;8.194;2022-10-30T09:42:47;32.55;;;13.00;;
18443;SDS011;9350;53.176;8.194;2022-10-30T09:48:25;26.63;;;12.60;;
18443;SDS011;9350;53.176;8.194;2022-10-30T09:51:14;24.65;;;11.60;;
18443;SDS011;9350;53.176;8.194;2022-10-30T09:53:54;24.25;;;11.95;;
18443;SDS011;9350;53.176;8.194;2022-10-30T09:56:30;24.00;;;13.23;;
18443;SDS011;9350;53.176;8.194;2022-10-30T09:59:03;25.92;;;12.15;;
18443;SDS011;9350;53.176;8.194;2022-10-30T10:01:40;22.50;;;12.10;;
18443;SDS011;9350;53.176;8.194;2022-10-30T10:04:15;21.98;;;12.30;;
18443;SDS011;9350;53.176;8.194;2022-10-30T10:06:49;23.65;;;12.23;;
18443;SDS011;9350;53.176;8.194;2022-10-30T10:09:21;29.45;;;12.20;;
18443;SDS011;9350;53.176;8.194;2022-10-30T10:11:50;25.95;;;11.73;;
18443;SDS011;9350;53.176;8.194;2022-10-30T10:14:20;37.13;;;13.15;;
18443;SDS011;9350;53.176;8.194;2022-10-30T10:16:52;28.60;;;12.40;;
18443;SDS011;9350;53.176;8.194;2022-10-30T10:19:21;28.35;;;11.65;;
18443;SDS011;9350;53.176;8.194;2022-10-30T10:21:56;25.70;;;12.85;;
18443;SDS011;9350;53.176;8.194;2022-10-30T10:24:24;25.60;;;12.45;;
18443;SDS011;9350;53.176;8.194;2022-10-30T10:26:55;25.48;;;12.05;;
18443;SDS011;9350;53.176;8.194;2022-10-30T10:29:31;27.33;;;12.50;;
18443;SDS011;9350;53.176;8.194;2022-10-30T10:32:18;23.67;;;12.10;;
18443;SDS011;9350;53.176;8.194;2022-10-30T10:35:07;24.10;;;11.38;;
18443;SDS011;9350;53.176;8.194;2022-10-30T10:37:48;23.25;;;12.20;;
18443;SDS011;9350;53.176;8.194;2022-10-30T10:40:23;28.23;;;12.60;;
18443;SDS011;9350;53.176;8.194;2022-10-30T10:43:01;21.85;;;11.60;;
18443;SDS011;9350;53.176;8.194;2022-10-30T10:45:37;27.98;;;12.00;;
18443;SDS011;9350;53.176;8.194;2022-10-30T10:48:15;24.90;;;11.82;;
18443;SDS011;9350;53.176;8.194;2022-10-30T10:51:01;25.42;;;12.45;;
18443;SDS011;9350;53.176;8.194;2022-10-30T10:53:33;26.42;;;11.50;;
18443;SDS011;9350;53.176;8.194;2022-10-30T10:56:06;23.90;;;11.68;;
18443;SDS011;9350;53.176;8.194;2022-10-30T10:58:35;27.17;;;11.90;;
18443;SDS011;9350;53.176;8.194;2022-10-30T11:01:07;25.95;;;11.07;;
18443;SDS011;9350;53.176;8.194;2022-10-30T11:03:43;19.50;;;11.15;;
18443;SDS011;9350;53.176;8.194;2022-10-30T11:06:18;20.42;;;10.90;;
18443;SDS011;9350;53.176;8.194;2022-10-30T11:08:46;27.25;;;11.75;;
18443;SDS011;9350;53.176;8.194;2022-10-30T11:11:14;33.03;;;11.60;;
18443;SDS011;9350;53.176;8.194;2022-10-30T11:13:41;26.15;;;12.30;;
18443;SDS011;9350;53.176;8.194;2022-10-30T11:16:14;22.98;;;12.35;;
18443;SDS011;9350;53.176;8.194;2022-10-30T11:18:51;28.45;;;11.40;;
18443;SDS011;9350;53.176;8.194;2022-10-30T11:21:21;25.13;;;12.02;;
18443;SDS011;9350;53.176;8.194;2022-10-30T11:23:49;40.22;;;11.38;;
18443;SDS011;9350;53.176;8.194;2022-10-30T11:29:05;23.02;;;10.38;;
18443;SDS011;9350;53.176;8.194;2022-10-30T11:31:38;26.88;;;10.73;;
18443;SDS011;9350;53.176;8.194;2022-10-30T11:34:13;21.27;;;10.63;;
18443;SDS011;9350;53.176;8.194;2022-10-30T11:36:53;31.02;;;11.18;;
18443;SDS011;9350;53.176;8.194;2022-10-30T11:39:21;27.08;;;10.48;;
18443;SDS011;9350;53.176;8.194;2022-10-30T11:41:53;21.90;;;10.27;;
18443;SDS011;9350;53.176;8.194;2022-10-30T11:44:26;22.45;;;9.43;;
18443;SDS011;9350;53.176;8.194;2022-10-30T11:46:56;21.48;;;10.73;;
18443;SDS011;9350;53.176;8.194;2022-10-30T11:49:26;31.58;;;10.43;;
18443;SDS011;9350;53.176;8.194;2022-10-30T11:51:59;27.15;;;9.65;;
18443;SDS011;9350;53.176;8.194;2022-10-30T11:54:27;19.58;;;9.45;;
18443;SDS011;9350;53.176;8.194;2022-10-30T11:56:54;19.75;;;10.02;;
18443;SDS011;9350;53.176;8.194;2022-10-30T11:59:23;15.07;;;8.48;;
18443;SDS011;9350;53.176;8.194;2022-10-30T12:01:57;20.65;;;9.40;;
18443;SDS011;9350;53.176;8.194;2022-10-30T12:04:27;24.70;;;9.43;;
18443;SDS011;9350;53.176;8.194;2022-10-30T12:07:06;18.20;;;8.85;;
18443;SDS011;9350;53.176;8.194;2022-10-30T12:09:40;16.63;;;8.63;;
18443;SDS011;9350;53.176;8.194;2022-10-30T12:12:11;18.20;;;8.25;;
18443;SDS011;9350;53.176;8.194;2022-10-30T12:14:45;16.77;;;8.25;;
18443;SDS011;9350;53.176;8.194;2022-10-30T12:17:13;18.38;;;9.00;;
18443;SDS011;9350;53.176;8.194;2022-10-30T12:19:45;18.98;;;8.50;;
18443;SDS011;9350;53.176;8.194;2022-10-30T12:22:23;17.63;;;8.70;;
18443;SDS011;9350;53.176;8.194;2022-10-30T12:24:53;22.90;;;8.85;;
18443;SDS011;9350;53.176;8.194;2022-10-30T12:27:20;19.75;;;8.95;;
18443;SDS011;9350;53.176;8.194;2022-10-30T12:29:50;15.40;;;7.78;;
18443;SDS011;9350;53.176;8.194;2022-10-30T12:32:32;20.17;;;8.25;;
18443;SDS011;9350;53.176;8.194;2022-10-30T12:35:07;16.13;;;7.72;;
18443;SDS011;9350;53.176;8.194;2022-10-30T12:37:41;21.58;;;8.30;;
18443;SDS011;9350;53.176;8.194;2022-10-30T12:40:10;17.73;;;8.00;;
18443;SDS011;9350;53.176;8.194;2022-10-30T12:42:44;16.60;;;7.90;;
18443;SDS011;9350;53.176;8.194;2022-10-30T12:45:17;17.00;;;8.38;;
18443;SDS011;9350;53.176;8.194;2022-10-30T12:47:48;18.55;;;8.13;;
18443;SDS011;9350;53.176;8.194;2022-10-30T12:50:21;16.20;;;7.25;;
18443;SDS011;9350;53.176;8.194;2022-10-30T12:52:53;18.65;;;7.70;;
18443;SDS011;9350;53.176;8.194;2022-10-30T12:55:25;15.75;;;7.88;;
18443;SDS011;9350;53.176;8.194;2022-10-30T12:57:58;15.32;;;7.72;;
18443;SDS011;9350;53.176;8.194;2022-10-30T13:00:32;17.95;;;7.68;;
18443;SDS011;9350;53.176;8.194;2022-10-30T13:03:04;22.92;;;9.15;;
18443;SDS011;9350;53.176;8.194;2022-10-30T13:05:47;17.40;;;8.50;;
18443;SDS011;9350;53.176;8.194;2022-10-30T13:08:18;20.27;;;8.43;;
18443;SDS011;9350;53.176;8.194;2022-10-30T13:10:51;24.17;;;8.98;;
18443;SDS011;9350;53.176;8.194;2022-10-30T13:13:20;18.45;;;8.80;;
18443;SDS011;9350;53.176;8.194;2022-10-30T13:15:50;19.25;;;8.32;;
18443;SDS011;9350;53.176;8.194;2022-10-30T13:18:20;17.17;;;8.52;;
18443;SDS011;9350;53.176;8.194;2022-10-30T13:20:57;20.75;;;8.75;;
18443;SDS011;9350;53.176;8.194;2022-10-30T13:23:34;17.45;;;8.23;;
18443;SDS011;9350;53.176;8.194;2022-10-30T13:26:13;21.33;;;8.32;;
18443;SDS011;9350;53.176;8.194;2022-10-30T13:28:49;17.20;;;7.90;;
18443;SDS011;9350;53.176;8.194;2022-10-30T13:31:22;19.75;;;7.90;;
18443;SDS011;9350;53.176;8.194;2022-10-30T13:33:58;17.17;;;7.93;;
18443;SDS011;9350;53.176;8.194;2022-10-30T13:36:32;20.30;;;8.05;;
18443;SDS011;9350;53.176;8.194;2022-10-30T13:39:10;18.95;;;8.25;;
18443;SDS011;9350;53.176;8.194;2022-10-30T13:41:50;22.65;;;8.60;;
18443;SDS011;9350;53.176;8.194;2022-10-30T13:44:29;19.85;;;9.07;;
18443;SDS011;9350;53.176;8.194;2022-10-30T13:47:08;20.20;;;8.65;;
18443;SDS011;9350;53.176;8.194;2022-10-30T13:49:47;18.20;;;8.88;;
18443;SDS011;9350;53.176;8.194;2022-10-30T13:52:27;18.40;;;9.20;;
18443;SDS011;9350;53.176;8.194;2022-10-30T13:54:58;22.50;;;8.45;;
18443;SDS011;9350;53.176;8.194;2022-10-30T13:57:32;15.98;;;8.65;;
18443;SDS011;9350;53.176;8.194;2022-10-30T14:00:05;20.23;;;9.63;;
18443;SDS011;9350;53.176;8.194;2022-10-30T14:02:41;20.80;;;8.77;;
18443;SDS011;9350;53.176;8.194;2022-10-30T14:05:25;24.55;;;8.98;;
18443;SDS011;9350;53.176;8.194;2022-10-30T14:07:59;16.23;;;8.95;;
18443;SDS011;9350;53.176;8.194;2022-10-30T14:10:39;21.30;;;8.80;;
18443;SDS011;9350;53.176;8.194;2022-10-30T14:13:13;22.50;;;9.15;;
18443;SDS011;9350;53.176;8.194;2022-10-30T14:15:55;27.75;;;9.00;;
18443;SDS011;9350;53.176;8.194;2022-10-30T14:18:26;17.85;;;8.73;;
18443;SDS011;9350;53.176;8.194;2022-10-30T14:20:55;26.50;;;8.75;;
18443;SDS011;9350;53.176;8.194;2022-10-30T14:23:26;19.13;;;8.30;;
18443;SDS011;9350;53.176;8.194;2022-10-30T14:26:11;19.10;;;8.55;;
18443;SDS011;9350;53.176;8.194;2022-10-30T14:28:39;21.13;;;8.43;;
18443;SDS011;9350;53.176;8.194;2022-10-30T14:31:08;23.77;;;8.77;;
18443;SDS011;9350;53.176;8.194;2022-10-30T14:33:40;19.33;;;8.43;;
18443;SDS011;9350;53.176;8.194;2022-10-30T14:36:13;20.23;;;8.82;;
18443;SDS011;9350;53.176;8.194;2022-10-30T14:38:52;23.52;;;8.70;;
18443;SDS011;9350;53.176;8.194;2022-10-30T14:44:18;20.17;;;8.70;;
18443;SDS011;9350;53.176;8.194;2022-10-30T14:47:05;20.92;;;9.70;;
18443;SDS011;9350;53.176;8.194;2022-10-30T14:49:48;25.98;;;10.68;;
18443;SDS011;9350;53.176;8.194;2022-10-30T14:52:22;23.08;;;10.38;;
18443;SDS011;9350;53.176;8.194;2022-10-30T14:55:03;23.92;;;9.98;;
18443;SDS011;9350;53.176;8.194;2022-10-30T14:57:44;29.92;;;10.43;;
18443;SDS011;9350;53.176;8.194;2022-10-30T15:00:28;16.92;;;9.27;;
18443;SDS011;9350;53.176;8.194;2022-10-30T15:03:06;24.63;;;9.02;;
18443;SDS011;9350;53.176;8.194;2022-10-30T15:05:42;27.48;;;9.50;;
18443;SDS011;9350;53.176;8.194;2022-10-30T15:08:18;28.05;;;9.35;;
18443;SDS011;9350;53.176;8.194;2022-10-30T15:14:04;27.10;;;9.95;;
18443;SDS011;9350;53.176;8.194;2022-10-30T15:16:35;30.13;;;10.35;;